createdAt,value
2019-03-16T00:03:37.440Z,6.60
2019-03-16T00:08:41.089Z,6.50
2019-03-16T00:13:44.737Z,6.50
2019-03-16T00:18:48.672Z,6.50
2019-03-16T00:23:52.312Z,6.40
2019-03-16T00:28:55.955Z,6.50
2019-03-16T00:33:59.631Z,6.40
2019-03-16T00:39:05.633Z,6.50
2019-03-16T00:44:09.564Z,6.40
2019-03-16T00:49:13.216Z,6.40
2019-03-16T00:54:16.887Z,6.40
2019-03-16T00:59:20.999Z,6.40
2019-03-16T01:04:24.843Z,6.40
2019-03-16T01:09:28.615Z,6.30
2019-03-16T01:14:32.276Z,6.30
2019-03-16T01:19:35.924Z,6.40
2019-03-16T01:24:39.594Z,6.40
2019-03-16T01:29:43.236Z,6.40
2019-03-16T01:34:46.890Z,6.40
2019-03-16T01:39:50.544Z,6.30
2019-03-16T01:44:54.188Z,6.30
2019-03-16T01:49:57.831Z,6.30
2019-03-16T01:55:01.501Z,6.30
2019-03-16T02:00:06.255Z,6.30
2019-03-16T02:05:10.029Z,6.30
2019-03-16T02:10:13.727Z,6.30
2019-03-16T02:15:17.610Z,6.30
2019-03-16T02:20:21.309Z,6.30
2019-03-16T02:25:25.006Z,6.20
2019-03-16T02:30:28.759Z,6.20
2019-03-16T02:35:32.556Z,6.20
2019-03-16T02:40:36.232Z,6.10
2019-03-16T02:45:39.939Z,6.10
2019-03-16T02:50:43.631Z,6.00
2019-03-16T02:55:47.327Z,6.00
2019-03-16T03:00:51.138Z,6.00
2019-03-16T03:05:54.857Z,5.90
2019-03-16T03:10:58.644Z,6.00
2019-03-16T03:16:02.377Z,6.00
2019-03-16T03:21:06.185Z,6.00
2019-03-16T03:26:09.920Z,5.90
2019-03-16T03:31:13.693Z,6.00
2019-03-16T03:36:17.413Z,5.90
2019-03-16T03:41:21.314Z,5.90
2019-03-16T03:46:25.039Z,5.90
2019-03-16T03:51:28.748Z,5.80
2019-03-16T03:56:32.536Z,5.80
2019-03-16T04:01:36.382Z,5.70
2019-03-16T04:06:40.178Z,5.70
2019-03-16T04:11:43.953Z,5.70
2019-03-16T04:16:48.069Z,5.60
2019-03-16T04:21:51.931Z,5.60
2019-03-16T04:26:55.643Z,5.60
2019-03-16T04:31:59.796Z,5.60
2019-03-16T04:37:03.514Z,5.50
2019-03-16T04:42:07.231Z,5.50
2019-03-16T04:47:10.939Z,5.50
2019-03-16T04:52:14.641Z,5.50
2019-03-16T04:57:18.370Z,5.40
2019-03-16T05:02:22.446Z,5.50
2019-03-16T05:07:26.610Z,5.40
2019-03-16T05:12:30.327Z,5.40
2019-03-16T05:17:34.033Z,5.40
2019-03-16T05:22:37.753Z,5.40
2019-03-16T05:27:41.513Z,5.40
2019-03-16T05:32:45.218Z,5.30
2019-03-16T05:37:48.932Z,5.40
2019-03-16T05:42:52.917Z,5.40
2019-03-16T05:47:56.622Z,5.40
2019-03-16T05:53:01.442Z,5.40
2019-03-16T05:58:05.166Z,5.50
2019-03-16T06:03:08.894Z,5.50
2019-03-16T06:08:12.870Z,5.50
2019-03-16T06:13:16.814Z,5.60
2019-03-16T06:18:20.525Z,5.60
2019-03-16T06:23:24.231Z,5.60
2019-03-16T06:28:28.003Z,5.60
2019-03-16T06:33:31.817Z,5.70
2019-03-16T06:38:35.614Z,5.70
2019-03-16T06:43:39.353Z,5.80
2019-03-16T06:48:43.153Z,5.80
2019-03-16T06:53:47.668Z,5.90
2019-03-16T06:58:51.923Z,5.90
2019-03-16T07:03:55.635Z,6.00
2019-03-16T07:08:59.336Z,6.10
2019-03-16T07:14:03.213Z,6.20
2019-03-16T07:19:07.203Z,6.20
2019-03-16T07:24:10.932Z,6.40
2019-03-16T07:29:14.689Z,6.40
2019-03-16T07:34:19.645Z,6.50
2019-03-16T07:39:23.675Z,6.60
2019-03-16T07:44:30.626Z,6.70
2019-03-16T07:49:34.384Z,6.80
2019-03-16T07:54:38.113Z,6.90
2019-03-16T07:59:42.039Z,7.00
2019-03-16T08:04:46.485Z,7.10
2019-03-16T08:09:50.224Z,7.10
2019-03-16T08:14:54.286Z,7.20
2019-03-16T08:20:08.779Z,7.30
2019-03-16T08:25:12.654Z,7.30
2019-03-16T08:30:16.464Z,7.40
2019-03-16T08:35:39.027Z,7.50
2019-03-16T08:40:42.839Z,7.50
2019-03-16T08:45:46.533Z,7.60
2019-03-16T08:50:50.246Z,7.60
2019-03-16T08:55:53.944Z,7.70
2019-03-16T09:00:57.644Z,7.70
2019-03-16T09:06:01.598Z,7.70
2019-03-16T09:11:05.317Z,7.80
2019-03-16T09:16:09.033Z,7.90
2019-03-16T09:21:12.745Z,7.90
2019-03-16T09:26:16.524Z,8.00
2019-03-16T09:31:20.245Z,8.00
2019-03-16T09:36:24.259Z,8.10
2019-03-16T09:41:27.990Z,8.10
2019-03-16T09:46:31.701Z,8.20
2019-03-16T09:51:35.418Z,8.20
2019-03-16T09:56:39.205Z,8.30
2019-03-16T10:01:42.971Z,8.30
2019-03-16T10:06:46.662Z,8.40
2019-03-16T10:11:50.370Z,8.40
2019-03-16T10:16:54.166Z,8.50
2019-03-16T10:21:57.863Z,8.60
2019-03-16T10:27:01.547Z,8.70
2019-03-16T10:32:05.346Z,8.80
2019-03-16T10:37:09.330Z,8.80
2019-03-16T10:42:13.014Z,8.80
2019-03-16T10:47:16.726Z,8.80
2019-03-16T10:52:20.445Z,8.80
2019-03-16T10:57:24.148Z,8.80
2019-03-16T11:02:28.219Z,8.80
2019-03-16T11:07:31.977Z,8.80
2019-03-16T11:12:35.703Z,8.80
2019-03-16T11:17:39.473Z,8.80
2019-03-16T11:22:43.163Z,8.80
2019-03-16T11:27:46.861Z,8.90
2019-03-16T11:32:50.831Z,8.80
2019-03-16T11:37:54.697Z,8.80
2019-03-16T11:42:58.410Z,8.90
2019-03-16T11:48:02.100Z,8.90
2019-03-16T11:53:05.798Z,8.90
2019-03-16T11:58:09.512Z,9.00
2019-03-16T12:03:13.212Z,9.00
2019-03-16T12:08:16.912Z,9.00
2019-03-16T12:13:20.914Z,9.00
2019-03-16T12:18:24.677Z,9.00
2019-03-16T12:23:28.466Z,9.00
2019-03-16T12:28:32.178Z,8.90
2019-03-16T12:33:35.905Z,8.90
2019-03-16T12:38:39.618Z,8.80
2019-03-16T12:43:43.329Z,8.70
2019-03-16T12:48:47.063Z,8.70
2019-03-16T12:53:50.838Z,8.70
2019-03-16T12:58:54.565Z,8.70
2019-03-16T13:03:58.635Z,8.70
2019-03-16T13:09:02.442Z,8.60
2019-03-16T13:14:06.146Z,8.50
2019-03-16T13:19:12.446Z,8.50
2019-03-16T13:24:16.877Z,8.40
2019-03-16T13:29:20.849Z,8.30
2019-03-16T13:34:24.619Z,8.20
2019-03-16T13:39:28.338Z,8.20
2019-03-16T13:44:32.303Z,8.10
2019-03-16T13:49:36.085Z,8.00
2019-03-16T13:54:39.866Z,8.00
2019-03-16T13:59:43.563Z,8.00
2019-03-16T14:04:47.353Z,7.90
2019-03-16T14:09:51.169Z,7.90
2019-03-16T14:14:55.381Z,7.80
2019-03-16T14:19:59.205Z,7.80
2019-03-16T14:25:02.974Z,7.70
2019-03-16T14:30:07.883Z,7.80
2019-03-16T14:35:12.766Z,7.70
2019-03-16T14:40:16.610Z,7.70
2019-03-16T14:45:20.328Z,7.70
2019-03-16T14:50:24.068Z,7.70
2019-03-16T14:55:27.846Z,7.70
2019-03-16T15:00:38.446Z,7.70
2019-03-16T15:05:39.513Z,7.70
2019-03-16T15:10:43.492Z,7.70
2019-03-16T15:15:47.269Z,7.60
2019-03-16T15:20:51.030Z,7.60
2019-03-16T15:25:55.098Z,7.60
2019-03-16T15:30:58.834Z,7.60
2019-03-16T15:36:02.922Z,7.60
2019-03-16T15:41:06.609Z,7.50
2019-03-16T15:46:10.334Z,7.50
2019-03-16T15:51:14.177Z,7.50
2019-03-16T15:56:17.865Z,7.50
2019-03-16T16:01:21.725Z,7.40
2019-03-16T16:06:25.505Z,7.40
2019-03-16T16:11:29.717Z,7.40
2019-03-16T16:16:34.478Z,7.30
2019-03-16T16:21:38.462Z,7.30
2019-03-16T16:26:42.315Z,7.30
2019-03-16T16:31:46.149Z,7.20
2019-03-16T16:36:49.859Z,7.20
2019-03-16T16:41:53.819Z,7.20
2019-03-16T16:46:57.644Z,7.20
2019-03-16T16:52:01.311Z,7.10
2019-03-16T16:57:05.077Z,7.10
2019-03-16T17:02:08.809Z,7.10
2019-03-16T17:07:13.090Z,7.10
2019-03-16T17:12:16.786Z,7.00
2019-03-16T17:17:20.494Z,7.00
2019-03-16T17:22:24.193Z,7.00
2019-03-16T17:27:27.907Z,7.00
2019-03-16T17:32:31.698Z,7.00
2019-03-16T17:37:36.014Z,7.00
2019-03-16T17:42:39.717Z,7.00
2019-03-16T17:47:43.488Z,7.00
2019-03-16T17:52:47.284Z,7.00
2019-03-16T17:57:51.002Z,7.10
2019-03-16T18:02:58.807Z,7.00
2019-03-16T18:08:02.541Z,7.10
2019-03-16T18:13:06.334Z,7.10
2019-03-16T18:18:10.054Z,7.10
2019-03-16T18:23:18.202Z,7.10
2019-03-16T18:28:22.017Z,7.10
2019-03-16T18:33:25.732Z,7.10
2019-03-16T18:38:29.782Z,7.10
2019-03-16T18:43:33.753Z,7.20
2019-03-16T18:48:37.568Z,7.20
2019-03-16T18:53:41.281Z,7.30
2019-03-16T18:58:44.962Z,7.30
2019-03-16T19:03:48.766Z,7.40
2019-03-16T19:08:52.507Z,7.40
2019-03-16T19:13:57.185Z,7.50
2019-03-16T19:19:01.235Z,7.60
2019-03-16T19:24:05.397Z,7.60
2019-03-16T19:29:09.660Z,7.70
2019-03-16T19:34:13.886Z,7.70
2019-03-16T19:39:19.803Z,7.80
2019-03-16T19:44:23.527Z,7.80
2019-03-16T19:49:27.966Z,7.80
2019-03-16T19:54:37.324Z,7.90
2019-03-16T19:59:41.489Z,7.90
2019-03-16T20:04:47.437Z,8.00
2019-03-16T20:09:51.436Z,8.00
2019-03-16T20:14:55.806Z,8.00
2019-03-16T20:20:00.499Z,8.10
2019-03-16T20:25:05.084Z,8.10
2019-03-16T20:30:09.613Z,8.10
2019-03-16T20:35:13.481Z,8.10
2019-03-16T20:40:17.381Z,8.20
2019-03-16T20:45:21.171Z,8.20
2019-03-16T20:50:24.970Z,8.20
2019-03-16T20:55:28.700Z,8.20
2019-03-16T21:00:32.437Z,8.20
2019-03-16T21:05:36.136Z,8.30
2019-03-16T21:10:39.841Z,8.30
2019-03-16T21:15:43.528Z,8.30
2019-03-16T21:20:47.658Z,8.40
2019-03-16T21:25:51.350Z,8.40
2019-03-16T21:30:55.042Z,8.40
2019-03-16T21:35:58.765Z,8.50
2019-03-16T21:41:02.464Z,8.50
2019-03-16T21:46:06.165Z,8.50
2019-03-16T21:51:09.933Z,8.50
2019-03-16T21:56:13.627Z,8.50
2019-03-16T22:01:17.315Z,8.60
2019-03-16T22:06:21.000Z,8.60
2019-03-16T22:11:24.701Z,8.60
2019-03-16T22:16:28.378Z,8.60
2019-03-16T22:21:32.084Z,8.60
2019-03-16T22:26:35.779Z,8.70
2019-03-16T22:31:39.497Z,8.70
2019-03-16T22:36:43.177Z,8.70
2019-03-16T22:41:46.857Z,8.70
2019-03-16T22:46:50.541Z,8.80
2019-03-16T22:51:54.237Z,8.80
2019-03-16T22:56:57.933Z,8.80
2019-03-16T23:02:01.981Z,8.80
2019-03-16T23:07:08.219Z,8.80
2019-03-16T23:12:12.062Z,8.80
2019-03-16T23:17:15.737Z,8.80
2019-03-16T23:22:19.506Z,8.80
2019-03-16T23:27:24.940Z,8.80
2019-03-16T23:32:28.922Z,8.80
2019-03-16T23:37:32.642Z,8.90
2019-03-16T23:42:36.346Z,8.90
2019-03-16T23:47:40.196Z,8.90
2019-03-16T23:52:43.905Z,8.80
2019-03-16T23:57:47.593Z,8.90
